sensor_id;sensor_type;location;lat;lon;timestamp;temperature;humidity
24250;DHT22;12379;49.820;8.648;2022-10-16T00:01:47;16.30;99.90
24250;DHT22;12379;49.820;8.648;2022-10-16T00:04:13;16.30;99.90
24250;DHT22;12379;49.820;8.648;2022-10-16T00:06:39;16.20;99.90
24250;DHT22;12379;49.820;8.648;2022-10-16T00:09:05;16.20;99.90
24250;DHT22;12379;49.820;8.648;2022-10-16T00:11:33;16.20;99.90
24250;DHT22;12379;49.820;8.648;2022-10-16T00:14:03;16.20;99.90
24250;DHT22;12379;49.820;8.648;2022-10-16T00:16:29;16.20;99.90
24250;DHT22;12379;49.820;8.648;2022-10-16T00:18:54;16.10;99.90
24250;DHT22;12379;49.820;8.648;2022-10-16T00:21:25;16.10;99.90
24250;DHT22;12379;49.820;8.648;2022-10-16T00:23:53;16.10;99.90
24250;DHT22;12379;49.820;8.648;2022-10-16T00:26:20;16.00;99.90
24250;DHT22;12379;49.820;8.648;2022-10-16T00:28:48;16.00;99.90
24250;DHT22;12379;49.820;8.648;2022-10-16T00:31:15;15.90;99.90
24250;DHT22;12379;49.820;8.648;2022-10-16T00:33:41;15.90;99.90
24250;DHT22;12379;49.820;8.648;2022-10-16T00:36:11;15.90;99.90
24250;DHT22;12379;49.820;8.648;2022-10-16T00:38:37;16.00;99.90
24250;DHT22;12379;49.820;8.648;2022-10-16T00:41:04;16.00;99.90
24250;DHT22;12379;49.820;8.648;2022-10-16T00:43:52;16.00;99.90
24250;DHT22;12379;49.820;8.648;2022-10-16T00:46:24;15.90;99.90
24250;DHT22;12379;49.820;8.648;2022-10-16T00:49:00;15.90;99.90
24250;DHT22;12379;49.820;8.648;2022-10-16T00:51:32;15.80;99.90
24250;DHT22;12379;49.820;8.648;2022-10-16T00:53:58;15.80;99.90
24250;DHT22;12379;49.820;8.648;2022-10-16T00:56:24;15.70;99.90
24250;DHT22;12379;49.820;8.648;2022-10-16T00:58:49;15.60;99.90
24250;DHT22;12379;49.820;8.648;2022-10-16T01:01:15;15.60;99.90
24250;DHT22;12379;49.820;8.648;2022-10-16T01:03:40;15.60;99.90
24250;DHT22;12379;49.820;8.648;2022-10-16T01:12:06;15.60;99.90
24250;DHT22;12379;49.820;8.648;2022-10-16T01:14:53;15.60;99.90
24250;DHT22;12379;49.820;8.648;2022-10-16T01:28:17;15.60;99.90
24250;DHT22;12379;49.820;8.648;2022-10-16T01:30:45;15.70;99.90
24250;DHT22;12379;49.820;8.648;2022-10-16T01:33:23;15.70;99.90
24250;DHT22;12379;49.820;8.648;2022-10-16T01:35:55;15.70;99.90
24250;DHT22;12379;49.820;8.648;2022-10-16T01:38:38;15.60;99.90
24250;DHT22;12379;49.820;8.648;2022-10-16T01:41:15;15.70;99.90
24250;DHT22;12379;49.820;8.648;2022-10-16T01:43:48;15.70;99.90
24250;DHT22;12379;49.820;8.648;2022-10-16T01:46:18;15.70;99.90
24250;DHT22;12379;49.820;8.648;2022-10-16T01:48:46;15.70;99.90
24250;DHT22;12379;49.820;8.648;2022-10-16T01:51:14;15.70;99.90
24250;DHT22;12379;49.820;8.648;2022-10-16T01:53:42;15.70;99.90
24250;DHT22;12379;49.820;8.648;2022-10-16T01:56:10;15.80;99.90
24250;DHT22;12379;49.820;8.648;2022-10-16T01:58:41;15.80;99.90
24250;DHT22;12379;49.820;8.648;2022-10-16T02:01:10;15.80;99.90
24250;DHT22;12379;49.820;8.648;2022-10-16T02:03:39;15.80;99.90
24250;DHT22;12379;49.820;8.648;2022-10-16T02:06:07;15.80;99.90
24250;DHT22;12379;49.820;8.648;2022-10-16T02:08:32;15.90;99.90
24250;DHT22;12379;49.820;8.648;2022-10-16T02:11:00;15.90;99.90
24250;DHT22;12379;49.820;8.648;2022-10-16T02:13:30;15.90;99.90
24250;DHT22;12379;49.820;8.648;2022-10-16T02:15:57;16.00;99.90
24250;DHT22;12379;49.820;8.648;2022-10-16T02:18:23;16.00;99.90
24250;DHT22;12379;49.820;8.648;2022-10-16T02:23:54;16.00;99.90
24250;DHT22;12379;49.820;8.648;2022-10-16T02:26:49;16.00;99.90
24250;DHT22;12379;49.820;8.648;2022-10-16T02:29:22;16.00;99.90
24250;DHT22;12379;49.820;8.648;2022-10-16T02:32:01;16.00;99.90
24250;DHT22;12379;49.820;8.648;2022-10-16T02:34:29;16.00;99.90
24250;DHT22;12379;49.820;8.648;2022-10-16T02:36:57;15.90;99.90
24250;DHT22;12379;49.820;8.648;2022-10-16T02:39:24;16.00;99.90
24250;DHT22;12379;49.820;8.648;2022-10-16T02:41:50;16.00;99.90
24250;DHT22;12379;49.820;8.648;2022-10-16T02:44:15;15.90;99.90
24250;DHT22;12379;49.820;8.648;2022-10-16T02:46:41;16.00;99.90
24250;DHT22;12379;49.820;8.648;2022-10-16T02:49:06;16.00;99.90
24250;DHT22;12379;49.820;8.648;2022-10-16T02:51:32;15.90;99.90
24250;DHT22;12379;49.820;8.648;2022-10-16T02:53:57;16.00;99.90
24250;DHT22;12379;49.820;8.648;2022-10-16T02:56:23;15.90;99.90
24250;DHT22;12379;49.820;8.648;2022-10-16T02:58:49;15.90;99.90
24250;DHT22;12379;49.820;8.648;2022-10-16T03:01:14;15.90;99.90
24250;DHT22;12379;49.820;8.648;2022-10-16T03:03:42;15.90;99.90
24250;DHT22;12379;49.820;8.648;2022-10-16T03:06:07;15.90;99.90
24250;DHT22;12379;49.820;8.648;2022-10-16T03:08:33;15.90;99.90
24250;DHT22;12379;49.820;8.648;2022-10-16T03:10:59;15.90;99.90
24250;DHT22;12379;49.820;8.648;2022-10-16T03:13:24;16.00;99.90
24250;DHT22;12379;49.820;8.648;2022-10-16T03:15:50;16.00;99.90
24250;DHT22;12379;49.820;8.648;2022-10-16T03:18:15;16.00;99.90
24250;DHT22;12379;49.820;8.648;2022-10-16T03:20:43;16.00;99.90
24250;DHT22;12379;49.820;8.648;2022-10-16T03:23:08;15.90;99.90
24250;DHT22;12379;49.820;8.648;2022-10-16T03:25:34;15.90;99.90
24250;DHT22;12379;49.820;8.648;2022-10-16T03:27:59;16.00;99.90
24250;DHT22;12379;49.820;8.648;2022-10-16T03:30:25;16.00;99.90
24250;DHT22;12379;49.820;8.648;2022-10-16T03:32:51;15.90;99.90
24250;DHT22;12379;49.820;8.648;2022-10-16T03:35:20;15.90;99.90
24250;DHT22;12379;49.820;8.648;2022-10-16T03:37:45;15.90;99.90
24250;DHT22;12379;49.820;8.648;2022-10-16T03:40:11;15.90;99.90
24250;DHT22;12379;49.820;8.648;2022-10-16T03:42:37;15.90;99.90
24250;DHT22;12379;49.820;8.648;2022-10-16T03:45:03;15.90;99.90
24250;DHT22;12379;49.820;8.648;2022-10-16T03:47:28;15.90;99.90
24250;DHT22;12379;49.820;8.648;2022-10-16T03:49:54;15.90;99.90
24250;DHT22;12379;49.820;8.648;2022-10-16T03:52:19;15.90;99.90
24250;DHT22;12379;49.820;8.648;2022-10-16T03:54:45;15.90;99.90
24250;DHT22;12379;49.820;8.648;2022-10-16T03:57:11;15.90;99.90
24250;DHT22;12379;49.820;8.648;2022-10-16T03:59:36;15.90;99.90
24250;DHT22;12379;49.820;8.648;2022-10-16T04:02:02;15.80;99.90
24250;DHT22;12379;49.820;8.648;2022-10-16T04:04:27;15.90;99.90
24250;DHT22;12379;49.820;8.648;2022-10-16T04:06:53;15.90;99.90
24250;DHT22;12379;49.820;8.648;2022-10-16T04:09:18;15.80;99.90
24250;DHT22;12379;49.820;8.648;2022-10-16T04:11:44;15.80;99.90
24250;DHT22;12379;49.820;8.648;2022-10-16T04:14:09;15.80;99.90
24250;DHT22;12379;49.820;8.648;2022-10-16T04:16:35;15.80;99.90
24250;DHT22;12379;49.820;8.648;2022-10-16T04:19:00;15.80;99.90
24250;DHT22;12379;49.820;8.648;2022-10-16T04:21:26;15.80;99.90
24250;DHT22;12379;49.820;8.648;2022-10-16T04:23:52;15.80;99.90
24250;DHT22;12379;49.820;8.648;2022-10-16T04:26:17;15.80;99.90
24250;DHT22;12379;49.820;8.648;2022-10-16T04:28:43;15.80;99.90
24250;DHT22;12379;49.820;8.648;2022-10-16T04:31:08;15.80;99.90
24250;DHT22;12379;49.820;8.648;2022-10-16T04:33:34;15.80;99.90
24250;DHT22;12379;49.820;8.648;2022-10-16T04:36:00;15.80;99.90
24250;DHT22;12379;49.820;8.648;2022-10-16T04:38:26;15.80;99.90
24250;DHT22;12379;49.820;8.648;2022-10-16T04:40:52;15.80;99.90
24250;DHT22;12379;49.820;8.648;2022-10-16T04:43:18;15.80;99.90
24250;DHT22;12379;49.820;8.648;2022-10-16T04:45:44;15.80;99.90
24250;DHT22;12379;49.820;8.648;2022-10-16T04:48:09;15.80;99.90
24250;DHT22;12379;49.820;8.648;2022-10-16T04:50:35;15.70;99.90
24250;DHT22;12379;49.820;8.648;2022-10-16T04:53:00;15.80;99.90
24250;DHT22;12379;49.820;8.648;2022-10-16T04:55:26;15.70;99.90
24250;DHT22;12379;49.820;8.648;2022-10-16T04:57:52;15.70;99.90
24250;DHT22;12379;49.820;8.648;2022-10-16T05:00:17;15.70;99.90
24250;DHT22;12379;49.820;8.648;2022-10-16T05:02:43;15.60;99.90
24250;DHT22;12379;49.820;8.648;2022-10-16T05:05:08;15.60;99.90
24250;DHT22;12379;49.820;8.648;2022-10-16T05:07:34;15.60;99.90
24250;DHT22;12379;49.820;8.648;2022-10-16T05:09:59;15.60;99.90
24250;DHT22;12379;49.820;8.648;2022-10-16T05:12:25;15.60;99.90
24250;DHT22;12379;49.820;8.648;2022-10-16T05:14:50;15.60;99.90
24250;DHT22;12379;49.820;8.648;2022-10-16T05:17:16;15.50;99.90
24250;DHT22;12379;49.820;8.648;2022-10-16T05:19:41;15.50;99.90
24250;DHT22;12379;49.820;8.648;2022-10-16T05:22:07;15.50;99.90
24250;DHT22;12379;49.820;8.648;2022-10-16T05:24:33;15.50;99.90
24250;DHT22;12379;49.820;8.648;2022-10-16T05:26:58;15.50;99.90
24250;DHT22;12379;49.820;8.648;2022-10-16T05:29:24;15.50;99.90
24250;DHT22;12379;49.820;8.648;2022-10-16T05:31:51;15.50;99.90
24250;DHT22;12379;49.820;8.648;2022-10-16T05:34:17;15.50;99.90
24250;DHT22;12379;49.820;8.648;2022-10-16T05:36:42;15.40;99.90
24250;DHT22;12379;49.820;8.648;2022-10-16T05:39:10;15.40;99.90
24250;DHT22;12379;49.820;8.648;2022-10-16T05:41:36;15.40;99.90
24250;DHT22;12379;49.820;8.648;2022-10-16T05:44:04;15.40;99.90
24250;DHT22;12379;49.820;8.648;2022-10-16T05:46:31;15.40;99.90
24250;DHT22;12379;49.820;8.648;2022-10-16T05:48:56;15.40;99.90
24250;DHT22;12379;49.820;8.648;2022-10-16T05:51:22;15.30;99.90
24250;DHT22;12379;49.820;8.648;2022-10-16T05:53:47;15.40;99.90
24250;DHT22;12379;49.820;8.648;2022-10-16T05:56:13;15.40;99.90
24250;DHT22;12379;49.820;8.648;2022-10-16T05:58:39;15.40;99.90
24250;DHT22;12379;49.820;8.648;2022-10-16T06:01:15;15.40;99.90
24250;DHT22;12379;49.820;8.648;2022-10-16T06:03:41;15.40;99.90
24250;DHT22;12379;49.820;8.648;2022-10-16T06:06:18;15.40;99.90
24250;DHT22;12379;49.820;8.648;2022-10-16T06:08:45;15.30;99.90
24250;DHT22;12379;49.820;8.648;2022-10-16T06:11:22;15.40;99.90
24250;DHT22;12379;49.820;8.648;2022-10-16T06:13:52;15.40;99.90
24250;DHT22;12379;49.820;8.648;2022-10-16T06:16:18;15.40;99.90
24250;DHT22;12379;49.820;8.648;2022-10-16T06:18:44;15.30;99.90
24250;DHT22;12379;49.820;8.648;2022-10-16T06:21:14;15.30;99.90
24250;DHT22;12379;49.820;8.648;2022-10-16T06:23:39;15.40;99.90
24250;DHT22;12379;49.820;8.648;2022-10-16T06:26:06;15.40;99.90
24250;DHT22;12379;49.820;8.648;2022-10-16T06:28:32;15.40;99.90
24250;DHT22;12379;49.820;8.648;2022-10-16T06:31:02;15.40;99.90
24250;DHT22;12379;49.820;8.648;2022-10-16T06:33:28;15.40;99.90
24250;DHT22;12379;49.820;8.648;2022-10-16T06:35:59;15.40;99.90
24250;DHT22;12379;49.820;8.648;2022-10-16T06:38:25;15.50;99.90
24250;DHT22;12379;49.820;8.648;2022-10-16T06:40:50;15.50;99.90
24250;DHT22;12379;49.820;8.648;2022-10-16T06:43:16;15.50;99.90
24250;DHT22;12379;49.820;8.648;2022-10-16T06:45:41;15.50;99.90
24250;DHT22;12379;49.820;8.648;2022-10-16T06:48:07;15.50;99.90
24250;DHT22;12379;49.820;8.648;2022-10-16T06:50:32;15.60;99.90
24250;DHT22;12379;49.820;8.648;2022-10-16T06:52:58;15.60;99.90
24250;DHT22;12379;49.820;8.648;2022-10-16T06:55:24;15.60;99.90
24250;DHT22;12379;49.820;8.648;2022-10-16T06:57:49;15.70;99.90
24250;DHT22;12379;49.820;8.648;2022-10-16T07:00:15;15.70;99.90
24250;DHT22;12379;49.820;8.648;2022-10-16T07:02:40;15.70;99.90
24250;DHT22;12379;49.820;8.648;2022-10-16T07:05:06;15.80;99.90
24250;DHT22;12379;49.820;8.648;2022-10-16T07:07:32;15.80;99.90
24250;DHT22;12379;49.820;8.648;2022-10-16T07:09:57;15.90;99.90
24250;DHT22;12379;49.820;8.648;2022-10-16T07:12:23;15.90;99.90
24250;DHT22;12379;49.820;8.648;2022-10-16T07:14:49;16.00;99.90
24250;DHT22;12379;49.820;8.648;2022-10-16T07:17:17;16.10;99.90
24250;DHT22;12379;49.820;8.648;2022-10-16T07:19:43;16.10;99.90
24250;DHT22;12379;49.820;8.648;2022-10-16T07:22:08;16.20;99.90
24250;DHT22;12379;49.820;8.648;2022-10-16T07:24:34;16.20;99.90
24250;DHT22;12379;49.820;8.648;2022-10-16T07:26:59;16.30;99.90
24250;DHT22;12379;49.820;8.648;2022-10-16T07:29:25;16.30;99.90
24250;DHT22;12379;49.820;8.648;2022-10-16T07:31:50;16.30;99.90
24250;DHT22;12379;49.820;8.648;2022-10-16T07:34:17;16.40;99.90
24250;DHT22;12379;49.820;8.648;2022-10-16T07:36:43;16.40;99.90
24250;DHT22;12379;49.820;8.648;2022-10-16T07:39:08;16.50;99.90
24250;DHT22;12379;49.820;8.648;2022-10-16T07:41:34;16.50;99.90
24250;DHT22;12379;49.820;8.648;2022-10-16T07:44:03;16.50;99.90
24250;DHT22;12379;49.820;8.648;2022-10-16T07:46:29;16.60;99.90
24250;DHT22;12379;49.820;8.648;2022-10-16T07:48:54;16.60;99.90
24250;DHT22;12379;49.820;8.648;2022-10-16T07:51:24;16.70;99.90
24250;DHT22;12379;49.820;8.648;2022-10-16T07:53:50;16.70;99.90
24250;DHT22;12379;49.820;8.648;2022-10-16T07:56:17;16.70;99.90
24250;DHT22;12379;49.820;8.648;2022-10-16T07:58:43;16.70;99.90
24250;DHT22;12379;49.820;8.648;2022-10-16T08:01:15;16.70;99.90
24250;DHT22;12379;49.820;8.648;2022-10-16T08:03:46;16.70;99.90
24250;DHT22;12379;49.820;8.648;2022-10-16T08:06:12;16.80;99.90
24250;DHT22;12379;49.820;8.648;2022-10-16T08:08:38;16.80;99.90
24250;DHT22;12379;49.820;8.648;2022-10-16T08:11:03;16.90;99.90
24250;DHT22;12379;49.820;8.648;2022-10-16T08:13:30;16.90;99.90
24250;DHT22;12379;49.820;8.648;2022-10-16T08:15:56;17.00;99.90
24250;DHT22;12379;49.820;8.648;2022-10-16T08:18:22;17.10;99.90
24250;DHT22;12379;49.820;8.648;2022-10-16T08:20:47;17.20;99.90
24250;DHT22;12379;49.820;8.648;2022-10-16T08:23:13;17.20;99.90
24250;DHT22;12379;49.820;8.648;2022-10-16T08:25:40;17.30;99.90
24250;DHT22;12379;49.820;8.648;2022-10-16T08:28:07;17.20;99.90
24250;DHT22;12379;49.820;8.648;2022-10-16T08:30:33;17.20;99.90
24250;DHT22;12379;49.820;8.648;2022-10-16T08:33:00;17.20;99.90
24250;DHT22;12379;49.820;8.648;2022-10-16T08:35:26;17.10;99.90
24250;DHT22;12379;49.820;8.648;2022-10-16T08:37:51;17.10;99.90
24250;DHT22;12379;49.820;8.648;2022-10-16T08:40:23;17.00;99.90
24250;DHT22;12379;49.820;8.648;2022-10-16T08:48:50;16.90;99.90
24250;DHT22;12379;49.820;8.648;2022-10-16T08:51:33;16.70;99.90
24250;DHT22;12379;49.820;8.648;2022-10-16T08:54:22;16.50;99.90
24250;DHT22;12379;49.820;8.648;2022-10-16T08:56:50;16.40;99.90
24250;DHT22;12379;49.820;8.648;2022-10-16T08:59:16;16.40;99.90
24250;DHT22;12379;49.820;8.648;2022-10-16T09:01:47;16.30;99.90
24250;DHT22;12379;49.820;8.648;2022-10-16T09:06:59;16.30;99.90
24250;DHT22;12379;49.820;8.648;2022-10-16T09:18:25;16.40;99.90
24250;DHT22;12379;49.820;8.648;2022-10-16T09:21:00;16.50;99.90
24250;DHT22;12379;49.820;8.648;2022-10-16T09:23:31;16.60;99.90
24250;DHT22;12379;49.820;8.648;2022-10-16T09:25:59;16.80;99.90
24250;DHT22;12379;49.820;8.648;2022-10-16T09:28:26;16.90;99.90
24250;DHT22;12379;49.820;8.648;2022-10-16T09:30:52;17.00;99.90
24250;DHT22;12379;49.820;8.648;2022-10-16T09:33:45;17.10;99.90
24250;DHT22;12379;49.820;8.648;2022-10-16T09:36:16;17.30;99.90
24250;DHT22;12379;49.820;8.648;2022-10-16T09:38:42;17.60;99.90
24250;DHT22;12379;49.820;8.648;2022-10-16T09:41:18;17.70;99.90
24250;DHT22;12379;49.820;8.648;2022-10-16T09:43:59;17.90;99.90
24250;DHT22;12379;49.820;8.648;2022-10-16T09:46:35;18.10;99.90
24250;DHT22;12379;49.820;8.648;2022-10-16T09:49:22;18.50;99.90
24250;DHT22;12379;49.820;8.648;2022-10-16T09:51:49;19.10;99.90
24250;DHT22;12379;49.820;8.648;2022-10-16T09:54:20;19.20;99.90
24250;DHT22;12379;49.820;8.648;2022-10-16T09:56:46;19.10;99.90
24250;DHT22;12379;49.820;8.648;2022-10-16T09:59:19;19.10;99.90
24250;DHT22;12379;49.820;8.648;2022-10-16T10:01:50;19.10;99.90
24250;DHT22;12379;49.820;8.648;2022-10-16T10:04:18;19.20;99.90
24250;DHT22;12379;49.820;8.648;2022-10-16T10:06:49;19.20;99.90
24250;DHT22;12379;49.820;8.648;2022-10-16T10:09:24;19.10;99.90
24250;DHT22;12379;49.820;8.648;2022-10-16T10:11:55;19.20;99.90
24250;DHT22;12379;49.820;8.648;2022-10-16T10:17:01;19.20;99.90
24250;DHT22;12379;49.820;8.648;2022-10-16T10:19:28;19.40;99.90
24250;DHT22;12379;49.820;8.648;2022-10-16T10:21:53;19.50;99.90
24250;DHT22;12379;49.820;8.648;2022-10-16T10:24:20;19.50;99.90
24250;DHT22;12379;49.820;8.648;2022-10-16T10:27:00;19.50;99.90
24250;DHT22;12379;49.820;8.648;2022-10-16T10:29:46;19.40;99.90
24250;DHT22;12379;49.820;8.648;2022-10-16T10:32:28;19.50;99.90
24250;DHT22;12379;49.820;8.648;2022-10-16T10:35:19;19.70;99.90
24250;DHT22;12379;49.820;8.648;2022-10-16T10:40:59;19.80;99.90
24250;DHT22;12379;49.820;8.648;2022-10-16T10:43:39;19.70;99.90
24250;DHT22;12379;49.820;8.648;2022-10-16T10:51:42;19.60;99.90
24250;DHT22;12379;49.820;8.648;2022-10-16T10:54:40;19.50;99.90
24250;DHT22;12379;49.820;8.648;2022-10-16T10:59:59;19.50;99.90
24250;DHT22;12379;49.820;8.648;2022-10-16T11:05:34;19.40;99.90
24250;DHT22;12379;49.820;8.648;2022-10-16T11:08:20;19.50;99.90
24250;DHT22;12379;49.820;8.648;2022-10-16T11:11:00;19.60;99.90
24250;DHT22;12379;49.820;8.648;2022-10-16T11:13:42;19.60;99.90
24250;DHT22;12379;49.820;8.648;2022-10-16T11:16:23;19.70;99.90
24250;DHT22;12379;49.820;8.648;2022-10-16T11:27:56;19.80;99.90
24250;DHT22;12379;49.820;8.648;2022-10-16T11:30:26;19.80;99.90
24250;DHT22;12379;49.820;8.648;2022-10-16T11:33:25;19.90;99.90
24250;DHT22;12379;49.820;8.648;2022-10-16T11:41:35;20.10;99.90
24250;DHT22;12379;49.820;8.648;2022-10-16T11:45:07;20.30;99.90
24250;DHT22;12379;49.820;8.648;2022-10-16T11:49:32;20.30;99.90
24250;DHT22;12379;49.820;8.648;2022-10-16T11:55:02;20.30;99.90
24250;DHT22;12379;49.820;8.648;2022-10-16T11:57:34;20.30;99.90
24250;DHT22;12379;49.820;8.648;2022-10-16T12:00:24;20.40;99.90
24250;DHT22;12379;49.820;8.648;2022-10-16T12:02:54;20.30;99.90
24250;DHT22;12379;49.820;8.648;2022-10-16T12:10:27;20.50;99.90
24250;DHT22;12379;49.820;8.648;2022-10-16T12:12:53;20.50;99.90
24250;DHT22;12379;49.820;8.648;2022-10-16T12:15:29;20.60;99.90
24250;DHT22;12379;49.820;8.648;2022-10-16T12:17:56;20.70;99.90
24250;DHT22;12379;49.820;8.648;2022-10-16T12:20:31;20.70;99.90
24250;DHT22;12379;49.820;8.648;2022-10-16T12:23:03;20.60;99.90
24250;DHT22;12379;49.820;8.648;2022-10-16T12:25:40;20.60;99.90
24250;DHT22;12379;49.820;8.648;2022-10-16T12:30:42;20.70;99.90
24250;DHT22;12379;49.820;8.648;2022-10-16T12:33:25;20.60;99.90
24250;DHT22;12379;49.820;8.648;2022-10-16T12:35:51;20.60;99.90
24250;DHT22;12379;49.820;8.648;2022-10-16T12:40:53;20.40;99.90
24250;DHT22;12379;49.820;8.648;2022-10-16T12:45:45;20.40;99.90
24250;DHT22;12379;49.820;8.648;2022-10-16T12:48:21;20.40;99.90
24250;DHT22;12379;49.820;8.648;2022-10-16T12:50:47;20.60;99.90
24250;DHT22;12379;49.820;8.648;2022-10-16T12:53:24;20.70;99.90
24250;DHT22;12379;49.820;8.648;2022-10-16T13:04:04;20.60;99.90
24250;DHT22;12379;49.820;8.648;2022-10-16T13:06:43;20.60;99.90
24250;DHT22;12379;49.820;8.648;2022-10-16T13:09:27;20.60;99.90
24250;DHT22;12379;49.820;8.648;2022-10-16T13:12:20;20.60;99.90
24250;DHT22;12379;49.820;8.648;2022-10-16T13:20:51;20.80;99.90
24250;DHT22;12379;49.820;8.648;2022-10-16T13:23:29;20.80;99.90
24250;DHT22;12379;49.820;8.648;2022-10-16T13:28:28;20.70;99.90
24250;DHT22;12379;49.820;8.648;2022-10-16T13:30:57;20.60;99.90
24250;DHT22;12379;49.820;8.648;2022-10-16T13:35:54;20.40;99.90
24250;DHT22;12379;49.820;8.648;2022-10-16T13:38:27;20.40;99.90
24250;DHT22;12379;49.820;8.648;2022-10-16T13:41:02;20.30;99.90
24250;DHT22;12379;49.820;8.648;2022-10-16T13:43:49;20.30;99.90
24250;DHT22;12379;49.820;8.648;2022-10-16T13:46:18;20.20;99.90
24250;DHT22;12379;49.820;8.648;2022-10-16T13:48:44;20.20;99.90
24250;DHT22;12379;49.820;8.648;2022-10-16T13:51:15;20.10;99.90
24250;DHT22;12379;49.820;8.648;2022-10-16T13:53:42;20.10;99.90
24250;DHT22;12379;49.820;8.648;2022-10-16T13:56:12;20.10;99.90
24250;DHT22;12379;49.820;8.648;2022-10-16T13:58:38;20.00;99.90
24250;DHT22;12379;49.820;8.648;2022-10-16T14:01:14;19.90;99.90
24250;DHT22;12379;49.820;8.648;2022-10-16T14:03:41;19.90;99.90
24250;DHT22;12379;49.820;8.648;2022-10-16T14:06:15;19.90;99.90
24250;DHT22;12379;49.820;8.648;2022-10-16T14:08:44;19.90;99.90
24250;DHT22;12379;49.820;8.648;2022-10-16T14:11:11;19.90;99.90
24250;DHT22;12379;49.820;8.648;2022-10-16T14:13:39;19.90;99.90
24250;DHT22;12379;49.820;8.648;2022-10-16T14:16:18;19.90;99.90
24250;DHT22;12379;49.820;8.648;2022-10-16T14:19:05;19.90;99.90
24250;DHT22;12379;49.820;8.648;2022-10-16T14:21:33;19.90;99.90
24250;DHT22;12379;49.820;8.648;2022-10-16T14:23:59;19.90;99.90
24250;DHT22;12379;49.820;8.648;2022-10-16T14:26:28;19.90;99.90
24250;DHT22;12379;49.820;8.648;2022-10-16T14:29:20;19.90;99.90
24250;DHT22;12379;49.820;8.648;2022-10-16T14:32:04;19.90;99.90
24250;DHT22;12379;49.820;8.648;2022-10-16T14:34:38;19.90;99.90
24250;DHT22;12379;49.820;8.648;2022-10-16T14:37:25;19.90;99.90
24250;DHT22;12379;49.820;8.648;2022-10-16T14:39:52;19.90;99.90
24250;DHT22;12379;49.820;8.648;2022-10-16T14:42:20;19.90;99.90
24250;DHT22;12379;49.820;8.648;2022-10-16T14:44:48;19.80;99.90
24250;DHT22;12379;49.820;8.648;2022-10-16T14:47:19;19.80;99.90
24250;DHT22;12379;49.820;8.648;2022-10-16T14:49:51;19.80;99.90
24250;DHT22;12379;49.820;8.648;2022-10-16T14:52:17;19.80;99.90
24250;DHT22;12379;49.820;8.648;2022-10-16T14:54:43;19.80;99.90
24250;DHT22;12379;49.820;8.648;2022-10-16T14:57:24;19.70;99.90
24250;DHT22;12379;49.820;8.648;2022-10-16T14:59:51;19.70;99.90
24250;DHT22;12379;49.820;8.648;2022-10-16T15:02:23;19.70;99.90
24250;DHT22;12379;49.820;8.648;2022-10-16T15:04:50;19.70;99.90
24250;DHT22;12379;49.820;8.648;2022-10-16T15:07:16;19.70;99.90
24250;DHT22;12379;49.820;8.648;2022-10-16T15:09:42;19.70;99.90
24250;DHT22;12379;49.820;8.648;2022-10-16T15:12:07;19.70;99.90
24250;DHT22;12379;49.820;8.648;2022-10-16T15:14:33;19.60;99.90
24250;DHT22;12379;49.820;8.648;2022-10-16T15:16:59;19.60;99.90
24250;DHT22;12379;49.820;8.648;2022-10-16T15:19:24;19.60;99.90
24250;DHT22;12379;49.820;8.648;2022-10-16T15:21:50;19.60;99.90
24250;DHT22;12379;49.820;8.648;2022-10-16T15:24:16;19.70;99.90
24250;DHT22;12379;49.820;8.648;2022-10-16T15:26:41;19.70;99.90
24250;DHT22;12379;49.820;8.648;2022-10-16T15:29:07;19.70;99.90
24250;DHT22;12379;49.820;8.648;2022-10-16T15:31:33;19.70;99.90
24250;DHT22;12379;49.820;8.648;2022-10-16T15:33:58;19.70;99.90
24250;DHT22;12379;49.820;8.648;2022-10-16T15:36:30;19.70;99.90
24250;DHT22;12379;49.820;8.648;2022-10-16T15:38:59;19.70;99.90
24250;DHT22;12379;49.820;8.648;2022-10-16T15:41:24;19.70;99.90
24250;DHT22;12379;49.820;8.648;2022-10-16T15:43:50;19.70;99.90
24250;DHT22;12379;49.820;8.648;2022-10-16T15:46:19;19.60;99.90
24250;DHT22;12379;49.820;8.648;2022-10-16T15:48:44;19.60;99.90
24250;DHT22;12379;49.820;8.648;2022-10-16T15:51:10;19.60;99.90
24250;DHT22;12379;49.820;8.648;2022-10-16T15:53:36;19.60;99.90
24250;DHT22;12379;49.820;8.648;2022-10-16T15:56:06;19.50;99.90
24250;DHT22;12379;49.820;8.648;2022-10-16T15:58:32;19.50;99.90
24250;DHT22;12379;49.820;8.648;2022-10-16T16:00:59;19.50;99.90
24250;DHT22;12379;49.820;8.648;2022-10-16T16:03:29;19.40;99.90
24250;DHT22;12379;49.820;8.648;2022-10-16T16:06:03;19.40;99.90
24250;DHT22;12379;49.820;8.648;2022-10-16T16:08:28;19.30;99.90
24250;DHT22;12379;49.820;8.648;2022-10-16T16:11:02;19.30;99.90
24250;DHT22;12379;49.820;8.648;2022-10-16T16:13:28;19.20;99.90
24250;DHT22;12379;49.820;8.648;2022-10-16T16:15:53;19.10;99.90
24250;DHT22;12379;49.820;8.648;2022-10-16T16:18:19;19.00;99.90
24250;DHT22;12379;49.820;8.648;2022-10-16T16:20:45;19.00;99.90
24250;DHT22;12379;49.820;8.648;2022-10-16T16:23:10;18.90;99.90
24250;DHT22;12379;49.820;8.648;2022-10-16T16:25:36;18.90;99.90
24250;DHT22;12379;49.820;8.648;2022-10-16T16:28:02;18.80;99.90
24250;DHT22;12379;49.820;8.648;2022-10-16T16:30:27;18.80;99.90
24250;DHT22;12379;49.820;8.648;2022-10-16T16:32:53;18.80;99.90
24250;DHT22;12379;49.820;8.648;2022-10-16T16:35:18;18.70;99.90
24250;DHT22;12379;49.820;8.648;2022-10-16T16:37:44;18.60;99.90
24250;DHT22;12379;49.820;8.648;2022-10-16T16:40:09;18.60;99.90
24250;DHT22;12379;49.820;8.648;2022-10-16T16:42:35;18.60;99.90
24250;DHT22;12379;49.820;8.648;2022-10-16T16:45:00;18.50;99.90
24250;DHT22;12379;49.820;8.648;2022-10-16T16:47:26;18.50;99.90
24250;DHT22;12379;49.820;8.648;2022-10-16T16:49:52;18.50;99.90
24250;DHT22;12379;49.820;8.648;2022-10-16T16:52:18;18.40;99.90
24250;DHT22;12379;49.820;8.648;2022-10-16T16:54:43;18.40;99.90
24250;DHT22;12379;49.820;8.648;2022-10-16T16:57:16;18.40;99.90
24250;DHT22;12379;49.820;8.648;2022-10-16T16:59:42;18.30;99.90
24250;DHT22;12379;49.820;8.648;2022-10-16T17:02:08;18.30;99.90
24250;DHT22;12379;49.820;8.648;2022-10-16T17:04:34;18.30;99.90
24250;DHT22;12379;49.820;8.648;2022-10-16T17:07:00;18.30;99.90
24250;DHT22;12379;49.820;8.648;2022-10-16T17:09:25;18.20;99.90
24250;DHT22;12379;49.820;8.648;2022-10-16T17:11:51;18.20;99.90
24250;DHT22;12379;49.820;8.648;2022-10-16T17:14:17;18.20;99.90
24250;DHT22;12379;49.820;8.648;2022-10-16T17:16:43;18.10;99.90
24250;DHT22;12379;49.820;8.648;2022-10-16T17:19:14;18.10;99.90
24250;DHT22;12379;49.820;8.648;2022-10-16T17:21:41;18.10;99.90
24250;DHT22;12379;49.820;8.648;2022-10-16T17:24:07;18.00;99.90
24250;DHT22;12379;49.820;8.648;2022-10-16T17:26:34;18.00;99.90
24250;DHT22;12379;49.820;8.648;2022-10-16T17:29:03;18.00;99.90